Terminal Aerodrome Forecast
Issued by NWS North Platte, NE

Home | Current Version | Previous Version | Text Only | Print | Product List | Glossary Off
Versions: 1 2 3 4 5 6 7 8 9 10 11 12 13 14 15 16 17 18 19

000
FTUS43 KLBF 231400 AAA
TAFVTN
TAF AMD
KVTN 231456Z 2315/2412 32024G36KT 4SM -SN BR FEW025 OVC035
      TEMPO 2315/2317 1SM -SN BLSN BR OVC015
     FM231700 33025G38KT 4SM -SN OVC035
     FM240100 33015G25KT P6SM OVC025
     FM240600 31012KT P6SM OVC025=

USA.gov is the U.S. government's official web portal to all federal, state and local government web resources and services.